createdAt,value
2023-12-09T00:02:51.745Z,3.227
2023-12-09T00:18:33.896Z,3.227
2023-12-09T00:34:16.419Z,3.227
2023-12-09T00:49:59.620Z,3.227
2023-12-09T01:05:42.109Z,3.227
2023-12-09T01:21:24.957Z,3.228
2023-12-09T01:37:07.722Z,3.228
2023-12-09T01:52:50.764Z,3.227
2023-12-09T02:08:33.362Z,3.227
2023-12-09T02:24:16.294Z,3.227
2023-12-09T02:39:59.185Z,3.227
2023-12-09T02:55:42.034Z,3.227
2023-12-09T03:11:24.723Z,3.227
2023-12-09T03:27:07.176Z,3.227
2023-12-09T03:42:50.460Z,3.227
2023-12-09T03:58:33.302Z,3.227
2023-12-09T04:14:16.400Z,3.227
2023-12-09T04:29:59.600Z,3.228
2023-12-09T04:45:42.174Z,3.228
2023-12-09T05:01:25.498Z,3.228
2023-12-09T05:17:08.267Z,3.228
2023-12-09T05:32:50.999Z,3.228
2023-12-09T05:48:33.412Z,3.228
2023-12-09T06:04:16.047Z,3.228
2023-12-09T06:19:59.277Z,3.229
2023-12-09T06:35:42.432Z,3.228
2023-12-09T06:51:25.308Z,3.229
2023-12-09T07:07:07.947Z,3.229
2023-12-09T07:22:50.497Z,3.229
2023-12-09T07:38:32.923Z,3.228
2023-12-09T07:54:15.943Z,3.229
2023-12-09T08:09:58.815Z,3.229
2023-12-09T08:25:41.448Z,3.235
2023-12-09T08:57:06.795Z,3.247
2023-12-09T09:12:50.044Z,3.261
2023-12-09T09:28:32.811Z,3.268
2023-12-09T09:44:15.712Z,3.27
2023-12-09T09:59:58.317Z,3.267
2023-12-09T10:15:40.679Z,3.288
2023-12-09T10:31:23.639Z,3.297
2023-12-09T10:47:06.618Z,3.278
2023-12-09T11:02:49.099Z,3.268
2023-12-09T11:18:31.536Z,3.261
2023-12-09T11:34:14.007Z,3.256
2023-12-09T11:49:56.756Z,3.329
2023-12-09T12:05:39.323Z,3.294
2023-12-09T12:21:22.477Z,3.285
2023-12-09T12:37:05.180Z,3.276
2023-12-09T12:52:48.069Z,3.268
2023-12-09T13:08:30.483Z,3.263
2023-12-09T13:24:12.843Z,3.412
2023-12-09T13:39:55.903Z,3.373
2023-12-09T13:55:38.233Z,3.35
2023-12-09T14:11:21.348Z,3.335
2023-12-09T14:27:04.504Z,3.325
2023-12-09T14:42:46.839Z,3.3
2023-12-09T14:58:30.092Z,3.29
2023-12-09T15:14:12.749Z,3.283
2023-12-09T15:29:55.926Z,3.276
2023-12-09T15:45:39.094Z,3.272
2023-12-09T15:46:26.556Z,3.263
2023-12-09T16:02:09.361Z,3.263
2023-12-09T16:17:51.763Z,3.26
2023-12-09T16:33:34.610Z,3.259
2023-12-09T16:49:17.216Z,3.253
2023-12-09T17:05:00.214Z,3.252
2023-12-09T17:20:42.569Z,3.247
2023-12-09T17:36:25.287Z,3.245
2023-12-09T17:52:08.476Z,3.241
2023-12-09T18:07:50.874Z,3.239
2023-12-09T18:23:33.745Z,3.238
2023-12-09T18:39:16.476Z,3.236
2023-12-09T18:54:58.789Z,3.234
2023-12-09T19:10:41.881Z,3.232
2023-12-09T19:26:24.318Z,3.232
2023-12-09T19:42:07.463Z,3.229
2023-12-09T19:57:49.990Z,3.229
2023-12-09T20:13:32.706Z,3.228
2023-12-09T20:29:15.615Z,3.228
2023-12-09T20:44:58.492Z,3.228
2023-12-09T21:16:24.001Z,3.227
2023-12-09T21:32:06.695Z,3.227
2023-12-09T21:47:49.066Z,3.228
2023-12-09T22:03:31.642Z,3.227
2023-12-09T22:19:14.642Z,3.228
2023-12-09T22:34:57.645Z,3.227
2023-12-09T22:50:40.117Z,3.228
2023-12-09T23:06:23.048Z,3.228
2023-12-09T23:22:06.324Z,3.227
2023-12-09T23:37:49.329Z,3.228
2023-12-09T23:53:32.356Z,3.228
